<?xml version='1.0' encoding='UTF-8' standalone='yes' ?>
<gpx version="1.1" creator="nl.sogeti.android.gpstracker" xsi:schemaLocation="http://www.topografix.com/GPX/1/1 http://www.topografix.com/gpx/1/1/gpx.xsd" xmlns="http://www.topografix.com/GPX/1/1" xmlns:xsi="http://www.w3.org/2001/XMLSchema-instance" xmlns:gpx10="http://www.topografix.com/GPX/1/0" xmlns:ogt10="http://gpstracker.android.sogeti.nl/GPX/1/0">
<metadata>
<time>2011-03-07T08:51:02Z</time>
</metadata>
<trk>
<name>Track 2011-03-07 09:51</name>
<trkseg>
</trkseg>
<trkseg>
<trkpt lat="46.86709999" lon="7.54689224">
<ele>573.2000122070313</ele>
<time>2011-03-07T08:52:13Z</time>
<extensions>
<gpx10:speed>2.462214469909668</gpx10:speed>
<ogt10:accuracy>44.0</ogt10:accuracy>
<gpx10:course>343.6000061035156</gpx10:course></extensions>
</trkpt>
<trkpt lat="46.86694655" lon="7.54644637">
<ele>551.9000244140625</ele>
<time>2011-03-07T08:52:29Z</time>
<extensions>
<gpx10:speed>2.015564441680908</gpx10:speed>
<ogt10:accuracy>30.0</ogt10:accuracy>
<gpx10:course>264.6000061035156</gpx10:course></extensions>
</trkpt>
<trkpt lat="46.86720587" lon="7.54542366">
<ele>549.7000122070313</ele>
<time>2011-03-07T08:53:24Z</time>
<extensions>
<gpx10:speed>3.1622776985168457</gpx10:speed>
<ogt10:accuracy>62.0</ogt10:accuracy>
<gpx10:course>313.1000061035156</gpx10:course></extensions>
</trkpt>
<trkpt lat="46.86670357" lon="7.54698954">
<ele>597.2999877929688</ele>
<time>2011-03-07T08:53:48Z</time>
<extensions>
<ogt10:accuracy>49.0</ogt10:accuracy></extensions>
</trkpt>
<trkpt lat="46.86743046" lon="7.54555042">
<ele>556.4000244140625</ele>
<time>2011-03-07T08:55:56Z</time>
<extensions>
<gpx10:speed>0.75</gpx10:speed>
<ogt10:accuracy>32.0</ogt10:accuracy>
<gpx10:course>348.20001220703125</gpx10:course></extensions>
</trkpt>
<trkpt lat="46.86790564" lon="7.54513157">
<ele>558.5</ele>
<time>2011-03-07T08:56:07Z</time>
<extensions>
<gpx10:speed>1.1180340051651</gpx10:speed>
<ogt10:accuracy>22.0</ogt10:accuracy>
<gpx10:course>330.6000061035156</gpx10:course></extensions>
</trkpt>
<trkpt lat="46.8684124" lon="7.54477784">
<ele>560.4000244140625</ele>
<time>2011-03-07T08:56:57Z</time>
<extensions>
<gpx10:speed>1.5</gpx10:speed>
<ogt10:accuracy>29.0</ogt10:accuracy>
<gpx10:course>322.8999938964844</gpx10:course></extensions>
</trkpt>
<trkpt lat="46.86918561" lon="7.54429653">
<ele>558.9000244140625</ele>
<time>2011-03-07T08:57:53Z</time>
<extensions>
<gpx10:speed>1.75</gpx10:speed>
<ogt10:accuracy>29.0</ogt10:accuracy>
<gpx10:course>350.29998779296875</gpx10:course></extensions>
</trkpt>
<trkpt lat="46.86936628" lon="7.54398601">
<ele>558.7999877929688</ele>
<time>2011-03-07T08:58:17Z</time>
<extensions>
<gpx10:speed>1.25</gpx10:speed>
<ogt10:accuracy>16.0</ogt10:accuracy>
<gpx10:course>302.8999938964844</gpx10:course></extensions>
</trkpt>
<trkpt lat="46.86963906" lon="7.54395723">
<ele>557.7000122070313</ele>
<time>2011-03-07T08:58:39Z</time>
<extensions>
<gpx10:speed>1.0</gpx10:speed>
<ogt10:accuracy>22.0</ogt10:accuracy>
<gpx10:course>347.0</gpx10:course></extensions>
</trkpt>
<trkpt lat="46.86990173" lon="7.54384736">
<ele>558.9000244140625</ele>
<time>2011-03-07T08:58:53Z</time>
<extensions>
<gpx10:speed>1.5</gpx10:speed>
<ogt10:accuracy>24.0</ogt10:accuracy>
<gpx10:course>338.0</gpx10:course></extensions>
</trkpt>
<trkpt lat="46.87012724" lon="7.54360948">
<ele>560.7999877929688</ele>
<time>2011-03-07T08:59:23Z</time>
<extensions>
<gpx10:speed>0.25</gpx10:speed>
<ogt10:accuracy>28.0</ogt10:accuracy>
<gpx10:course>343.70001220703125</gpx10:course></extensions>
</trkpt>
<trkpt lat="46.87035352" lon="7.54338675">
<ele>558.0</ele>
<time>2011-03-07T08:59:31Z</time>
<extensions>
<gpx10:speed>1.5</gpx10:speed>
<ogt10:accuracy>23.0</ogt10:accuracy>
<gpx10:course>319.70001220703125</gpx10:course></extensions>
</trkpt>
<trkpt lat="46.87056992" lon="7.54314457">
<ele>558.9000244140625</ele>
<time>2011-03-07T08:59:47Z</time>
<extensions>
<gpx10:speed>1.25</gpx10:speed>
<ogt10:accuracy>17.0</ogt10:accuracy>
<gpx10:course>325.70001220703125</gpx10:course></extensions>
</trkpt>
<trkpt lat="46.87077211" lon="7.54287977">
<ele>560.2000122070313</ele>
<time>2011-03-07T09:00:12Z</time>
<extensions>
<gpx10:speed>1.5</gpx10:speed>
<ogt10:accuracy>17.0</ogt10:accuracy>
<gpx10:course>288.8999938964844</gpx10:course></extensions>
</trkpt>
<trkpt lat="46.87102478" lon="7.54267513">
<ele>562.2999877929688</ele>
<time>2011-03-07T09:00:32Z</time>
<extensions>
<gpx10:speed>1.25</gpx10:speed>
<ogt10:accuracy>17.0</ogt10:accuracy>
<gpx10:course>335.29998779296875</gpx10:course></extensions>
</trkpt>
<trkpt lat="46.87129876" lon="7.54264479">
<ele>558.5999755859375</ele>
<time>2011-03-07T09:01:03Z</time>
<extensions>
<gpx10:speed>0.75</gpx10:speed>
<ogt10:accuracy>24.0</ogt10:accuracy>
<gpx10:course>340.8999938964844</gpx10:course></extensions>
</trkpt>
<trkpt lat="46.87155548" lon="7.54249177">
<ele>557.5999755859375</ele>
<time>2011-03-07T09:01:22Z</time>
<extensions>
<gpx10:speed>1.0</gpx10:speed>
<ogt10:accuracy>23.0</ogt10:accuracy>
<gpx10:course>332.8999938964844</gpx10:course></extensions>
</trkpt>
<trkpt lat="46.87179517" lon="7.5422819">
<ele>559.0999755859375</ele>
<time>2011-03-07T09:01:36Z</time>
<extensions>
<gpx10:speed>1.25</gpx10:speed>
<ogt10:accuracy>23.0</ogt10:accuracy>
<gpx10:course>335.5</gpx10:course></extensions>
</trkpt>
<trkpt lat="46.87208746" lon="7.5420635">
<ele>560.7000122070313</ele>
<time>2011-03-07T09:01:56Z</time>
<extensions>
<gpx10:speed>1.25</gpx10:speed>
<ogt10:accuracy>16.0</ogt10:accuracy>
<gpx10:course>328.79998779296875</gpx10:course></extensions>
</trkpt>
<trkpt lat="46.8723244" lon="7.5418533">
<ele>562.4000244140625</ele>
<time>2011-03-07T09:02:16Z</time>
<extensions>
<gpx10:speed>1.75</gpx10:speed>
<ogt10:accuracy>13.0</ogt10:accuracy>
<gpx10:course>328.5</gpx10:course></extensions>
</trkpt>
<trkpt lat="46.87258758" lon="7.54174775">
<ele>562.0999755859375</ele>
<time>2011-03-07T09:02:35Z</time>
<extensions>
<gpx10:speed>1.346291184425354</gpx10:speed>
<ogt10:accuracy>15.0</ogt10:accuracy>
<gpx10:course>329.0</gpx10:course></extensions>
</trkpt>
<trkpt lat="46.87284561" lon="7.54159317">
<ele>559.0999755859375</ele>
<time>2011-03-07T09:02:58Z</time>
<extensions>
<gpx10:speed>1.0</gpx10:speed>
<ogt10:accuracy>22.0</ogt10:accuracy>
<gpx10:course>352.70001220703125</gpx10:course></extensions>
</trkpt>
<trkpt lat="46.87311757" lon="7.54154192">
<ele>561.2999877929688</ele>
<time>2011-03-07T09:03:22Z</time>
<extensions>
<gpx10:speed>0.75</gpx10:speed>
<ogt10:accuracy>15.0</ogt10:accuracy>
<gpx10:course>1.0</gpx10:course></extensions>
</trkpt>
<trkpt lat="46.87338348" lon="7.54146425">
<ele>561.7000122070313</ele>
<time>2011-03-07T09:03:36Z</time>
<extensions>
<gpx10:speed>1.346291184425354</gpx10:speed>
<ogt10:accuracy>19.0</ogt10:accuracy>
<gpx10:course>349.0</gpx10:course></extensions>
</trkpt>
<trkpt lat="46.87366388" lon="7.54135099">
<ele>561.7999877929688</ele>
<time>2011-03-07T09:04:03Z</time>
<extensions>
<gpx10:speed>1.0</gpx10:speed>
<ogt10:accuracy>23.0</ogt10:accuracy>
<gpx10:course>329.29998779296875</gpx10:course></extensions>
</trkpt>
<trkpt lat="46.87392343" lon="7.54115956">
<ele>559.7999877929688</ele>
<time>2011-03-07T09:04:17Z</time>
<extensions>
<gpx10:speed>0.5</gpx10:speed>
<ogt10:accuracy>13.0</ogt10:accuracy>
<gpx10:course>326.8999938964844</gpx10:course></extensions>
</trkpt>
<trkpt lat="46.8741908" lon="7.54121495">
<ele>557.2000122070313</ele>
<time>2011-03-07T09:04:38Z</time>
<extensions>
<gpx10:speed>0.5</gpx10:speed>
<ogt10:accuracy>13.0</ogt10:accuracy>
<gpx10:course>41.70000076293945</gpx10:course></extensions>
</trkpt>
<trkpt lat="46.87411456" lon="7.54159302">
<ele>556.5</ele>
<time>2011-03-07T09:05:19Z</time>
<extensions>
<gpx10:speed>1.0</gpx10:speed>
<ogt10:accuracy>19.0</ogt10:accuracy>
<gpx10:course>88.19999694824219</gpx10:course></extensions>
</trkpt>
<trkpt lat="46.87428156" lon="7.54125161">
<ele>557.9000244140625</ele>
<time>2011-03-07T09:06:05Z</time>
<extensions>
<gpx10:speed>1.0</gpx10:speed>
<ogt10:accuracy>12.0</ogt10:accuracy>
<gpx10:course>308.70001220703125</gpx10:course></extensions>
</trkpt>
<trkpt lat="46.87451752" lon="7.54100574">
<ele>561.2000122070313</ele>
<time>2011-03-07T09:06:36Z</time>
<extensions>
<gpx10:speed>1.0</gpx10:speed>
<ogt10:accuracy>10.0</ogt10:accuracy>
<gpx10:course>1.0</gpx10:course></extensions>
</trkpt>
<trkpt lat="46.87479048" lon="7.54085689">
<ele>558.2000122070313</ele>
<time>2011-03-07T09:07:32Z</time>
<extensions>
<gpx10:speed>0.75</gpx10:speed>
<ogt10:accuracy>28.0</ogt10:accuracy>
<gpx10:course>61.099998474121094</gpx10:course></extensions>
</trkpt>
<trkpt lat="46.87506453" lon="7.54082025">
<ele>551.7999877929688</ele>
<time>2011-03-07T09:09:02Z</time>
<extensions>
<gpx10:speed>0.75</gpx10:speed>
<ogt10:accuracy>14.0</ogt10:accuracy>
<gpx10:course>347.3999938964844</gpx10:course></extensions>
</trkpt>
<trkpt lat="46.87533282" lon="7.54069476">
<ele>561.9000244140625</ele>
<time>2011-03-07T09:09:47Z</time>
<extensions>
<gpx10:speed>1.0</gpx10:speed>
<ogt10:accuracy>23.0</ogt10:accuracy>
<gpx10:course>357.3999938964844</gpx10:course></extensions>
</trkpt>
<trkpt lat="46.87613549" lon="7.54032638">
<ele>559.0</ele>
<time>2011-03-07T09:10:49Z</time>
<extensions>
<gpx10:speed>1.25</gpx10:speed>
<ogt10:accuracy>24.0</ogt10:accuracy>
<gpx10:course>345.6000061035156</gpx10:course></extensions>
</trkpt>
<trkpt lat="46.87642672" lon="7.540022">
<ele>555.0</ele>
<time>2011-03-07T09:12:32Z</time>
<extensions>
<gpx10:speed>1.5</gpx10:speed>
<ogt10:accuracy>20.0</ogt10:accuracy>
<gpx10:course>186.5</gpx10:course></extensions>
</trkpt>
<trkpt lat="46.87642321" lon="7.53959648">
<ele>555.0</ele>
<time>2011-03-07T09:13:23Z</time>
<extensions>
<gpx10:speed>1.0</gpx10:speed>
<ogt10:accuracy>14.0</ogt10:accuracy>
<gpx10:course>306.8999938964844</gpx10:course></extensions>
</trkpt>
<trkpt lat="46.87650196" lon="7.53918659">
<ele>556.7000122070313</ele>
<time>2011-03-07T09:13:58Z</time>
<extensions>
<gpx10:speed>0.5</gpx10:speed>
<ogt10:accuracy>21.0</ogt10:accuracy>
<gpx10:course>325.6000061035156</gpx10:course></extensions>
</trkpt>
<trkpt lat="46.87677359" lon="7.5391615">
<ele>557.0</ele>
<time>2011-03-07T09:14:23Z</time>
<extensions>
<gpx10:speed>0.75</gpx10:speed>
<ogt10:accuracy>20.0</ogt10:accuracy>
<gpx10:course>1.899999976158142</gpx10:course></extensions>
</trkpt>
<trkpt lat="46.87700364" lon="7.53890304">
<ele>558.0999755859375</ele>
<time>2011-03-07T09:15:09Z</time>
<extensions>
<gpx10:speed>0.75</gpx10:speed>
<ogt10:accuracy>18.0</ogt10:accuracy>
<gpx10:course>303.70001220703125</gpx10:course></extensions>
</trkpt>
<trkpt lat="46.87713379" lon="7.53854439">
<ele>562.7000122070313</ele>
<time>2011-03-07T09:15:46Z</time>
<extensions>
<gpx10:speed>0.75</gpx10:speed>
<ogt10:accuracy>16.0</ogt10:accuracy>
<gpx10:course>306.20001220703125</gpx10:course></extensions>
</trkpt>
<trkpt lat="46.87729404" lon="7.53819025">
<ele>565.5</ele>
<time>2011-03-07T09:16:13Z</time>
<extensions>
<gpx10:speed>1.25</gpx10:speed>
<ogt10:accuracy>13.0</ogt10:accuracy>
<gpx10:course>304.29998779296875</gpx10:course></extensions>
</trkpt>
<trkpt lat="46.87754387" lon="7.53835011">
<ele>559.5999755859375</ele>
<time>2011-03-07T09:16:43Z</time>
<extensions>
<gpx10:speed>1.25</gpx10:speed>
<ogt10:accuracy>14.0</ogt10:accuracy>
<gpx10:course>49.900001525878906</gpx10:course></extensions>
</trkpt>
<trkpt lat="46.87779776" lon="7.53849831">
<ele>560.5999755859375</ele>
<time>2011-03-07T09:17:09Z</time>
<extensions>
<gpx10:speed>1.0</gpx10:speed>
<ogt10:accuracy>12.0</ogt10:accuracy>
<gpx10:course>336.6000061035156</gpx10:course></extensions>
</trkpt>
<trkpt lat="46.8780014" lon="7.53820281">
<ele>563.2999877929688</ele>
<time>2011-03-07T09:17:30Z</time>
<extensions>
<gpx10:speed>0.75</gpx10:speed>
<ogt10:accuracy>15.0</ogt10:accuracy>
<gpx10:course>313.20001220703125</gpx10:course></extensions>
</trkpt>
<trkpt lat="46.8780888" lon="7.53781272">
<ele>564.4000244140625</ele>
<time>2011-03-07T09:17:53Z</time>
<extensions>
<gpx10:speed>0.25</gpx10:speed>
<ogt10:accuracy>15.0</ogt10:accuracy>
<gpx10:course>262.5</gpx10:course></extensions>
</trkpt>
<trkpt lat="46.87800216" lon="7.53742827">
<ele>565.0999755859375</ele>
<time>2011-03-07T09:18:32Z</time>
<extensions>
<gpx10:speed>0.5</gpx10:speed>
<ogt10:accuracy>19.0</ogt10:accuracy>
<gpx10:course>250.5</gpx10:course></extensions>
</trkpt>
<trkpt lat="46.87807223" lon="7.53781963">
<ele>560.2999877929688</ele>
<time>2011-03-07T09:20:23Z</time>
<extensions>
<gpx10:speed>1.0</gpx10:speed>
<ogt10:accuracy>13.0</ogt10:accuracy>
<gpx10:course>106.0</gpx10:course></extensions>
</trkpt>
<trkpt lat="46.878023" lon="7.53822789">
<ele>561.0</ele>
<time>2011-03-07T09:20:58Z</time>
<extensions>
<gpx10:speed>0.5</gpx10:speed>
<ogt10:accuracy>14.0</ogt10:accuracy>
<gpx10:course>141.39999389648438</gpx10:course></extensions>
</trkpt>
<trkpt lat="46.87805534" lon="7.53862552">
<ele>561.0999755859375</ele>
<time>2011-03-07T09:21:11Z</time>
<extensions>
<gpx10:speed>1.5</gpx10:speed>
<ogt10:accuracy>11.0</ogt10:accuracy>
<gpx10:course>90.69999694824219</gpx10:course></extensions>
</trkpt>
<trkpt lat="46.87821209" lon="7.53894846">
<ele>558.0999755859375</ele>
<time>2011-03-07T09:21:35Z</time>
<extensions>
<gpx10:speed>1.25</gpx10:speed>
<ogt10:accuracy>10.0</ogt10:accuracy>
<gpx10:course>22.5</gpx10:course></extensions>
</trkpt>
<trkpt lat="46.87847939" lon="7.53900518">
<ele>556.7000122070313</ele>
<time>2011-03-07T09:21:55Z</time>
<extensions>
<gpx10:speed>0.75</gpx10:speed>
<ogt10:accuracy>11.0</ogt10:accuracy>
<gpx10:course>353.1000061035156</gpx10:course></extensions>
</trkpt>
<trkpt lat="46.87874736" lon="7.53891659">
<ele>558.2999877929688</ele>
<time>2011-03-07T09:22:25Z</time>
<extensions>
<gpx10:speed>1.0</gpx10:speed>
<ogt10:accuracy>14.0</ogt10:accuracy>
<gpx10:course>343.70001220703125</gpx10:course></extensions>
</trkpt>
<trkpt lat="46.8790209" lon="7.53884874">
<ele>566.0999755859375</ele>
<time>2011-03-07T09:22:49Z</time>
<extensions>
<gpx10:speed>1.25</gpx10:speed>
<ogt10:accuracy>14.0</ogt10:accuracy>
<gpx10:course>325.70001220703125</gpx10:course></extensions>
</trkpt>
<trkpt lat="46.87926786" lon="7.53863587">
<ele>564.9000244140625</ele>
<time>2011-03-07T09:23:03Z</time>
<extensions>
<gpx10:speed>2.3048861026763916</gpx10:speed>
<ogt10:accuracy>24.0</ogt10:accuracy>
<gpx10:course>338.1000061035156</gpx10:course></extensions>
</trkpt>
<trkpt lat="46.87931854" lon="7.53824651">
<ele>570.2999877929688</ele>
<time>2011-03-07T09:23:57Z</time>
<extensions>
<gpx10:speed>1.25</gpx10:speed>
<ogt10:accuracy>20.0</ogt10:accuracy>
<gpx10:course>280.0</gpx10:course></extensions>
</trkpt>
<trkpt lat="46.87917628" lon="7.53790885">
<ele>573.7999877929688</ele>
<time>2011-03-07T09:24:44Z</time>
<extensions>
<gpx10:speed>1.25</gpx10:speed>
<ogt10:accuracy>14.0</ogt10:accuracy>
<gpx10:course>242.6999969482422</gpx10:course></extensions>
</trkpt>
<trkpt lat="46.87909603" lon="7.53746045">
<ele>579.2000122070313</ele>
<time>2011-03-07T09:25:02Z</time>
<extensions>
<gpx10:speed>1.25</gpx10:speed>
<ogt10:accuracy>15.0</ogt10:accuracy>
<gpx10:course>250.5</gpx10:course></extensions>
</trkpt>
<trkpt lat="46.87926234" lon="7.53712123">
<ele>580.5999755859375</ele>
<time>2011-03-07T09:25:30Z</time>
<extensions>
<gpx10:speed>0.75</gpx10:speed>
<ogt10:accuracy>20.0</ogt10:accuracy>
<gpx10:course>310.79998779296875</gpx10:course></extensions>
</trkpt>
<trkpt lat="46.87954089" lon="7.53699532">
<ele>577.0</ele>
<time>2011-03-07T09:25:55Z</time>
<extensions>
<gpx10:speed>0.75</gpx10:speed>
<ogt10:accuracy>21.0</ogt10:accuracy>
<gpx10:course>8.399999618530273</gpx10:course></extensions>
</trkpt>
<trkpt lat="46.87974357" lon="7.5372617">
<ele>573.5</ele>
<time>2011-03-07T09:26:24Z</time>
<extensions>
<gpx10:speed>1.0</gpx10:speed>
<ogt10:accuracy>18.0</ogt10:accuracy>
<gpx10:course>353.29998779296875</gpx10:course></extensions>
</trkpt>
<trkpt lat="46.88001466" lon="7.53721317">
<ele>570.2999877929688</ele>
<time>2011-03-07T09:26:54Z</time>
<extensions>
<gpx10:speed>1.0</gpx10:speed>
<ogt10:accuracy>17.0</ogt10:accuracy>
<gpx10:course>28.0</gpx10:course></extensions>
</trkpt>
<trkpt lat="46.88026976" lon="7.53738803">
<ele>567.5999755859375</ele>
<time>2011-03-07T09:27:25Z</time>
<extensions>
<gpx10:speed>0.75</gpx10:speed>
<ogt10:accuracy>19.0</ogt10:accuracy>
<gpx10:course>27.799999237060547</gpx10:course></extensions>
</trkpt>
<trkpt lat="46.88051274" lon="7.53758588">
<ele>567.4000244140625</ele>
<time>2011-03-07T09:27:40Z</time>
<extensions>
<gpx10:speed>1.5</gpx10:speed>
<ogt10:accuracy>23.0</ogt10:accuracy>
<gpx10:course>36.400001525878906</gpx10:course></extensions>
</trkpt>
<trkpt lat="46.88076422" lon="7.53742685">
<ele>568.4000244140625</ele>
<time>2011-03-07T09:28:30Z</time>
<extensions>
<gpx10:speed>1.0</gpx10:speed>
<ogt10:accuracy>17.0</ogt10:accuracy>
<gpx10:course>337.79998779296875</gpx10:course></extensions>
</trkpt>
<trkpt lat="46.88101603" lon="7.53759558">
<ele>566.2999877929688</ele>
<time>2011-03-07T09:28:58Z</time>
<extensions>
<gpx10:speed>0.75</gpx10:speed>
<ogt10:accuracy>16.0</ogt10:accuracy>
<gpx10:course>44.5</gpx10:course></extensions>
</trkpt>
<trkpt lat="46.881059" lon="7.53799346">
<ele>567.9000244140625</ele>
<time>2011-03-07T09:29:34Z</time>
<extensions>
<gpx10:speed>0.5</gpx10:speed>
<ogt10:accuracy>17.0</ogt10:accuracy>
<gpx10:course>73.0999984741211</gpx10:course></extensions>
</trkpt>
<trkpt lat="46.8811188" lon="7.53838034">
<ele>566.5</ele>
<time>2011-03-07T09:29:55Z</time>
<extensions>
<gpx10:speed>1.0</gpx10:speed>
<ogt10:accuracy>16.0</ogt10:accuracy>
<gpx10:course>94.69999694824219</gpx10:course></extensions>
</trkpt>
<trkpt lat="46.88128038" lon="7.53806296">
<ele>570.0999755859375</ele>
<time>2011-03-07T09:30:33Z</time>
<extensions>
<gpx10:speed>1.0</gpx10:speed>
<ogt10:accuracy>17.0</ogt10:accuracy>
<gpx10:course>293.79998779296875</gpx10:course></extensions>
</trkpt>
<trkpt lat="46.88132982" lon="7.53765851">
<ele>573.5</ele>
<time>2011-03-07T09:30:56Z</time>
<extensions>
<gpx10:speed>1.25</gpx10:speed>
<ogt10:accuracy>18.0</ogt10:accuracy>
<gpx10:course>302.20001220703125</gpx10:course></extensions>
</trkpt>
<trkpt lat="46.8815791" lon="7.53747324">
<ele>571.0999755859375</ele>
<time>2011-03-07T09:31:34Z</time>
<extensions>
<gpx10:speed>0.7071067690849304</gpx10:speed>
<ogt10:accuracy>28.0</ogt10:accuracy>
<gpx10:course>299.70001220703125</gpx10:course></extensions>
</trkpt>
<trkpt lat="46.88186503" lon="7.53753871">
<ele>570.0999755859375</ele>
<time>2011-03-07T09:31:57Z</time>
<extensions>
<gpx10:speed>0.75</gpx10:speed>
<ogt10:accuracy>18.0</ogt10:accuracy>
<gpx10:course>352.70001220703125</gpx10:course></extensions>
</trkpt>
<trkpt lat="46.88211509" lon="7.53730243">
<ele>572.4000244140625</ele>
<time>2011-03-07T09:32:22Z</time>
<extensions>
<gpx10:speed>1.25</gpx10:speed>
<ogt10:accuracy>24.0</ogt10:accuracy>
<gpx10:course>357.6000061035156</gpx10:course></extensions>
</trkpt>
<trkpt lat="46.88225089" lon="7.53694299">
<ele>571.5</ele>
<time>2011-03-07T09:32:47Z</time>
<extensions>
<gpx10:speed>0.5</gpx10:speed>
<ogt10:accuracy>20.0</ogt10:accuracy>
<gpx10:course>335.5</gpx10:course></extensions>
</trkpt>
<trkpt lat="46.8825227" lon="7.536975">
<ele>570.7999877929688</ele>
<time>2011-03-07T09:33:13Z</time>
<extensions>
<gpx10:speed>0.5</gpx10:speed>
<ogt10:accuracy>18.0</ogt10:accuracy>
<gpx10:course>16.600000381469727</gpx10:course></extensions>
</trkpt>
<trkpt lat="46.88278434" lon="7.53707657">
<ele>570.4000244140625</ele>
<time>2011-03-07T09:33:32Z</time>
<extensions>
<gpx10:speed>1.0</gpx10:speed>
<ogt10:accuracy>22.0</ogt10:accuracy>
<gpx10:course>14.300000190734863</gpx10:course></extensions>
</trkpt>
<trkpt lat="46.88306822" lon="7.53709724">
<ele>574.2999877929688</ele>
<time>2011-03-07T09:33:59Z</time>
<extensions>
<gpx10:speed>0.25</gpx10:speed>
<ogt10:accuracy>11.0</ogt10:accuracy>
<gpx10:course>18.299999237060547</gpx10:course></extensions>
</trkpt>
<trkpt lat="46.8830458" lon="7.53670149">
<ele>569.0</ele>
<time>2011-03-07T09:34:24Z</time>
<extensions>
<gpx10:speed>1.820027470588684</gpx10:speed>
<ogt10:accuracy>13.0</ogt10:accuracy>
<gpx10:course>251.6999969482422</gpx10:course></extensions>
</trkpt>
<trkpt lat="46.88313279" lon="7.53709246">
<ele>571.2999877929688</ele>
<time>2011-03-07T09:35:05Z</time>
<extensions>
<gpx10:speed>0.75</gpx10:speed>
<ogt10:accuracy>16.0</ogt10:accuracy>
<gpx10:course>99.69999694824219</gpx10:course></extensions>
</trkpt>
<trkpt lat="46.88323048" lon="7.53669565">
<ele>578.5999755859375</ele>
<time>2011-03-07T09:37:50Z</time>
<extensions>
<gpx10:speed>1.5</gpx10:speed>
<ogt10:accuracy>18.0</ogt10:accuracy>
<gpx10:course>253.6999969482422</gpx10:course></extensions>
</trkpt>
<trkpt lat="46.88320857" lon="7.53628292">
<ele>578.9000244140625</ele>
<time>2011-03-07T09:38:11Z</time>
<extensions>
<gpx10:speed>1.0</gpx10:speed>
<ogt10:accuracy>25.0</ogt10:accuracy>
<gpx10:course>258.3999938964844</gpx10:course></extensions>
</trkpt>
<trkpt lat="46.88314396" lon="7.53586841">
<ele>578.7999877929688</ele>
<time>2011-03-07T09:38:25Z</time>
<extensions>
<gpx10:speed>1.25</gpx10:speed>
<ogt10:accuracy>28.0</ogt10:accuracy>
<gpx10:course>258.3999938964844</gpx10:course></extensions>
</trkpt>
<trkpt lat="46.8829657" lon="7.53550456">
<ele>573.5</ele>
<time>2011-03-07T09:39:14Z</time>
<extensions>
<gpx10:speed>0.75</gpx10:speed>
<ogt10:accuracy>19.0</ogt10:accuracy>
<gpx10:course>278.20001220703125</gpx10:course></extensions>
</trkpt>
<trkpt lat="46.88288551" lon="7.53510773">
<ele>570.7000122070313</ele>
<time>2011-03-07T09:40:06Z</time>
<extensions>
<gpx10:speed>0.75</gpx10:speed>
<ogt10:accuracy>22.0</ogt10:accuracy>
<gpx10:course>231.8000030517578</gpx10:course></extensions>
</trkpt>
<trkpt lat="46.8829803" lon="7.53473832">
<ele>563.4000244140625</ele>
<time>2011-03-07T09:40:27Z</time>
<extensions>
<gpx10:speed>1.5</gpx10:speed>
<ogt10:accuracy>17.0</ogt10:accuracy>
<gpx10:course>283.20001220703125</gpx10:course></extensions>
</trkpt>
<trkpt lat="46.88309486" lon="7.53436876">
<ele>560.5</ele>
<time>2011-03-07T09:40:45Z</time>
<extensions>
<gpx10:speed>1.25</gpx10:speed>
<ogt10:accuracy>21.0</ogt10:accuracy>
<gpx10:course>291.8999938964844</gpx10:course></extensions>
</trkpt>
<trkpt lat="46.88326399" lon="7.53401828">
<ele>561.7000122070313</ele>
<time>2011-03-07T09:41:03Z</time>
<extensions>
<gpx10:speed>1.5</gpx10:speed>
<ogt10:accuracy>19.0</ogt10:accuracy>
<gpx10:course>294.1000061035156</gpx10:course></extensions>
</trkpt>
<trkpt lat="46.88344607" lon="7.53372025">
<ele>559.2999877929688</ele>
<time>2011-03-07T09:41:29Z</time>
<extensions>
<gpx10:speed>1.0</gpx10:speed>
<ogt10:accuracy>24.0</ogt10:accuracy>
<gpx10:course>314.3999938964844</gpx10:course></extensions>
</trkpt>
<trkpt lat="46.88357118" lon="7.53407418">
<ele>558.7999877929688</ele>
<time>2011-03-07T09:41:55Z</time>
<extensions>
<gpx10:speed>1.0</gpx10:speed>
<ogt10:accuracy>19.0</ogt10:accuracy>
<gpx10:course>86.0999984741211</gpx10:course></extensions>
</trkpt>
<trkpt lat="46.88378705" lon="7.53434454">
<ele>559.2000122070313</ele>
<time>2011-03-07T09:42:22Z</time>
<extensions>
<gpx10:speed>0.5</gpx10:speed>
<ogt10:accuracy>20.0</ogt10:accuracy>
<gpx10:course>33.70000076293945</gpx10:course></extensions>
</trkpt>
<trkpt lat="46.88407954" lon="7.53427819">
<ele>557.7999877929688</ele>
<time>2011-03-07T09:42:29Z</time>
<extensions>
<gpx10:speed>1.0</gpx10:speed>
<ogt10:accuracy>23.0</ogt10:accuracy>
<gpx10:course>352.8999938964844</gpx10:course></extensions>
</trkpt>
<trkpt lat="46.88428822" lon="7.53401019">
<ele>556.7000122070313</ele>
<time>2011-03-07T09:43:00Z</time>
<extensions>
<gpx10:speed>0.5</gpx10:speed>
<ogt10:accuracy>24.0</ogt10:accuracy>
<gpx10:course>303.1000061035156</gpx10:course></extensions>
</trkpt>
<trkpt lat="46.88451788" lon="7.53423167">
<ele>558.0999755859375</ele>
<time>2011-03-07T09:43:12Z</time>
<extensions>
<gpx10:speed>1.0</gpx10:speed>
<ogt10:accuracy>23.0</ogt10:accuracy>
<gpx10:course>24.200000762939453</gpx10:course></extensions>
</trkpt>
<trkpt lat="46.8847575" lon="7.53404011">
<ele>558.4000244140625</ele>
<time>2011-03-07T09:43:44Z</time>
<extensions>
<gpx10:speed>0.5</gpx10:speed>
<ogt10:accuracy>20.0</ogt10:accuracy>
<gpx10:course>352.8999938964844</gpx10:course></extensions>
</trkpt>
<trkpt lat="46.8850015" lon="7.53380105">
<ele>560.4000244140625</ele>
<time>2011-03-07T09:44:03Z</time>
<extensions>
<gpx10:speed>1.25</gpx10:speed>
<ogt10:accuracy>27.0</ogt10:accuracy>
<gpx10:course>293.79998779296875</gpx10:course></extensions>
</trkpt>
<trkpt lat="46.88518378" lon="7.53349846">
<ele>560.7000122070313</ele>
<time>2011-03-07T09:44:32Z</time>
<extensions>
<gpx10:speed>0.5</gpx10:speed>
<ogt10:accuracy>22.0</ogt10:accuracy>
<gpx10:course>339.8999938964844</gpx10:course></extensions>
</trkpt>
<trkpt lat="46.88543935" lon="7.5332913">
<ele>557.4000244140625</ele>
<time>2011-03-07T09:45:12Z</time>
<extensions>
<gpx10:speed>0.75</gpx10:speed>
<ogt10:accuracy>27.0</ogt10:accuracy>
<gpx10:course>285.5</gpx10:course></extensions>
</trkpt>
<trkpt lat="46.88574093" lon="7.53337042">
<ele>559.2000122070313</ele>
<time>2011-03-07T09:45:21Z</time>
<extensions>
<gpx10:speed>1.75</gpx10:speed>
<ogt10:accuracy>22.0</ogt10:accuracy>
<gpx10:course>19.200000762939453</gpx10:course></extensions>
</trkpt>
<trkpt lat="46.88600471" lon="7.53327684">
<ele>565.2000122070313</ele>
<time>2011-03-07T09:45:51Z</time>
<extensions>
<gpx10:speed>1.5</gpx10:speed>
<ogt10:accuracy>24.0</ogt10:accuracy>
<gpx10:course>324.5</gpx10:course></extensions>
</trkpt>
<trkpt lat="46.88645579" lon="7.53301152">
<ele>563.2000122070313</ele>
<time>2011-03-07T09:47:01Z</time>
<extensions>
<gpx10:speed>1.25</gpx10:speed>
<ogt10:accuracy>25.0</ogt10:accuracy>
<gpx10:course>307.1000061035156</gpx10:course></extensions>
</trkpt>
<trkpt lat="46.88665562" lon="7.53274164">
<ele>561.7000122070313</ele>
<time>2011-03-07T09:47:22Z</time>
<extensions>
<gpx10:speed>0.75</gpx10:speed>
<ogt10:accuracy>25.0</ogt10:accuracy>
<gpx10:course>305.20001220703125</gpx10:course></extensions>
</trkpt>
<trkpt lat="46.88692552" lon="7.53267723">
<ele>559.7999877929688</ele>
<time>2011-03-07T09:47:50Z</time>
<extensions>
<gpx10:speed>0.75</gpx10:speed>
<ogt10:accuracy>23.0</ogt10:accuracy>
<gpx10:course>271.20001220703125</gpx10:course></extensions>
</trkpt>
<trkpt lat="46.88711271" lon="7.53303025">
<ele>559.4000244140625</ele>
<time>2011-03-07T09:48:24Z</time>
<extensions>
<gpx10:speed>1.5811388492584229</gpx10:speed>
<ogt10:accuracy>22.0</ogt10:accuracy>
<gpx10:course>26.399999618530273</gpx10:course></extensions>
</trkpt>
<trkpt lat="46.88724652" lon="7.5333845">
<ele>552.7999877929688</ele>
<time>2011-03-07T09:48:57Z</time>
<extensions>
<gpx10:speed>0.5</gpx10:speed>
<ogt10:accuracy>17.0</ogt10:accuracy>
<gpx10:course>100.9000015258789</gpx10:course></extensions>
</trkpt>
<trkpt lat="46.88735917" lon="7.53376334">
<ele>559.2000122070313</ele>
<time>2011-03-07T09:49:20Z</time>
<extensions>
<gpx10:speed>0.75</gpx10:speed>
<ogt10:accuracy>17.0</ogt10:accuracy>
<gpx10:course>63.0</gpx10:course></extensions>
</trkpt>
<trkpt lat="46.88753808" lon="7.53408619">
<ele>561.4000244140625</ele>
<time>2011-03-07T09:49:43Z</time>
<extensions>
<gpx10:speed>0.75</gpx10:speed>
<ogt10:accuracy>16.0</ogt10:accuracy>
<gpx10:course>75.9000015258789</gpx10:course></extensions>
</trkpt>
<trkpt lat="46.88771355" lon="7.53438616">
<ele>562.5</ele>
<time>2011-03-07T09:49:57Z</time>
<extensions>
<gpx10:speed>1.0</gpx10:speed>
<ogt10:accuracy>16.0</ogt10:accuracy>
<gpx10:course>78.0999984741211</gpx10:course></extensions>
</trkpt>
<trkpt lat="46.88774772" lon="7.53478727">
<ele>565.5999755859375</ele>
<time>2011-03-07T09:50:19Z</time>
<extensions>
<gpx10:speed>1.0</gpx10:speed>
<ogt10:accuracy>18.0</ogt10:accuracy>
<gpx10:course>94.19999694824219</gpx10:course></extensions>
</trkpt>
<trkpt lat="46.88795736" lon="7.5350559">
<ele>567.7999877929688</ele>
<time>2011-03-07T09:50:41Z</time>
<extensions>
<gpx10:speed>0.75</gpx10:speed>
<ogt10:accuracy>18.0</ogt10:accuracy>
<gpx10:course>74.80000305175781</gpx10:course></extensions>
</trkpt>
<trkpt lat="46.88826544" lon="7.53507142">
<ele>566.7000122070313</ele>
<time>2011-03-07T09:51:13Z</time>
<extensions>
<gpx10:speed>0.75</gpx10:speed>
<ogt10:accuracy>23.0</ogt10:accuracy>
<gpx10:course>328.20001220703125</gpx10:course></extensions>
</trkpt>
<trkpt lat="46.88854763" lon="7.53509739">
<ele>565.7000122070313</ele>
<time>2011-03-07T09:51:40Z</time>
<extensions>
<gpx10:speed>0.25</gpx10:speed>
<ogt10:accuracy>21.0</ogt10:accuracy>
<gpx10:course>22.299999237060547</gpx10:course></extensions>
</trkpt>
<trkpt lat="46.8887549" lon="7.53536588">
<ele>560.5999755859375</ele>
<time>2011-03-07T09:52:11Z</time>
<extensions>
<gpx10:speed>1.25</gpx10:speed>
<ogt10:accuracy>23.0</ogt10:accuracy>
<gpx10:course>94.4000015258789</gpx10:course></extensions>
</trkpt>
<trkpt lat="46.88896206" lon="7.53564294">
<ele>563.0</ele>
<time>2011-03-07T09:52:27Z</time>
<extensions>
<gpx10:speed>1.0</gpx10:speed>
<ogt10:accuracy>18.0</ogt10:accuracy>
<gpx10:course>50.599998474121094</gpx10:course></extensions>
</trkpt>
<trkpt lat="46.88925273" lon="7.5355927">
<ele>561.9000244140625</ele>
<time>2011-03-07T09:52:49Z</time>
<extensions>
<gpx10:speed>1.25</gpx10:speed>
<ogt10:accuracy>28.0</ogt10:accuracy>
<gpx10:course>345.6000061035156</gpx10:course></extensions>
</trkpt>
<trkpt lat="46.88897334" lon="7.53561763">
<ele>563.0999755859375</ele>
<time>2011-03-07T09:53:00Z</time>
<extensions>
<gpx10:speed>0.75</gpx10:speed>
<ogt10:accuracy>27.0</ogt10:accuracy>
<gpx10:course>335.0</gpx10:course></extensions>
</trkpt>
<trkpt lat="46.88900487" lon="7.53601068">
<ele>563.2000122070313</ele>
<time>2011-03-07T09:53:58Z</time>
<extensions>
<gpx10:speed>1.25</gpx10:speed>
<ogt10:accuracy>22.0</ogt10:accuracy>
<gpx10:course>83.19999694824219</gpx10:course></extensions>
</trkpt>
<trkpt lat="46.88914643" lon="7.53639639">
<ele>559.2999877929688</ele>
<time>2011-03-07T09:54:27Z</time>
<extensions>
<gpx10:speed>0.75</gpx10:speed>
<ogt10:accuracy>13.0</ogt10:accuracy>
<gpx10:course>51.20000076293945</gpx10:course></extensions>
</trkpt>
<trkpt lat="46.88936894" lon="7.53665197">
<ele>563.5</ele>
<time>2011-03-07T09:55:31Z</time>
<extensions>
<gpx10:speed>1.25</gpx10:speed>
<ogt10:accuracy>9.0</ogt10:accuracy>
<gpx10:course>75.30000305175781</gpx10:course></extensions>
</trkpt>
<trkpt lat="46.88942157" lon="7.53706512">
<ele>560.9000244140625</ele>
<time>2011-03-07T09:55:53Z</time>
<extensions>
<gpx10:speed>0.75</gpx10:speed>
<ogt10:accuracy>9.0</ogt10:accuracy>
<gpx10:course>64.0999984741211</gpx10:course></extensions>
</trkpt>
<trkpt lat="46.88947519" lon="7.53746508">
<ele>562.7000122070313</ele>
<time>2011-03-07T09:56:10Z</time>
<extensions>
<gpx10:speed>1.0</gpx10:speed>
<ogt10:accuracy>8.0</ogt10:accuracy>
<gpx10:course>62.20000076293945</gpx10:course></extensions>
</trkpt>
<trkpt lat="46.8895777" lon="7.5378329">
<ele>562.5</ele>
<time>2011-03-07T09:56:28Z</time>
<extensions>
<gpx10:speed>1.0</gpx10:speed>
<ogt10:accuracy>8.0</ogt10:accuracy>
<gpx10:course>96.19999694824219</gpx10:course></extensions>
</trkpt>
<trkpt lat="46.88932025" lon="7.53796965">
<ele>563.7999877929688</ele>
<time>2011-03-07T09:57:31Z</time>
<extensions>
<gpx10:speed>1.0</gpx10:speed>
<ogt10:accuracy>15.0</ogt10:accuracy>
<gpx10:course>161.5</gpx10:course></extensions>
</trkpt>
<trkpt lat="46.88912541" lon="7.53826604">
<ele>558.0999755859375</ele>
<time>2011-03-07T09:57:53Z</time>
<extensions>
<gpx10:speed>1.0</gpx10:speed>
<ogt10:accuracy>12.0</ogt10:accuracy>
<gpx10:course>153.60000610351563</gpx10:course></extensions>
</trkpt>
<trkpt lat="46.88884801" lon="7.53823552">
<ele>554.0999755859375</ele>
<time>2011-03-07T09:58:12Z</time>
<extensions>
<gpx10:speed>1.25</gpx10:speed>
<ogt10:accuracy>9.0</ogt10:accuracy>
<gpx10:course>204.60000610351563</gpx10:course></extensions>
</trkpt>
<trkpt lat="46.88855285" lon="7.53820893">
<ele>560.5999755859375</ele>
<time>2011-03-07T09:58:39Z</time>
<extensions>
<gpx10:speed>0.5</gpx10:speed>
<ogt10:accuracy>10.0</ogt10:accuracy>
<gpx10:course>189.89999389648438</gpx10:course></extensions>
</trkpt>
<trkpt lat="46.88832886" lon="7.53844618">
<ele>562.5</ele>
<time>2011-03-07T09:59:08Z</time>
<extensions>
<gpx10:speed>2.0</gpx10:speed>
<ogt10:accuracy>14.0</ogt10:accuracy>
<gpx10:course>140.0</gpx10:course></extensions>
</trkpt>
<trkpt lat="46.88804587" lon="7.53844342">
<ele>569.2000122070313</ele>
<time>2011-03-07T09:59:33Z</time>
<extensions>
<gpx10:speed>1.25</gpx10:speed>
<ogt10:accuracy>8.0</ogt10:accuracy>
<gpx10:course>158.1999969482422</gpx10:course></extensions>
</trkpt>
<trkpt lat="46.88777607" lon="7.53853581">
<ele>568.5</ele>
<time>2011-03-07T09:59:52Z</time>
<extensions>
<gpx10:speed>1.25</gpx10:speed>
<ogt10:accuracy>7.0</ogt10:accuracy>
<gpx10:course>172.0</gpx10:course></extensions>
</trkpt>
<trkpt lat="46.88750996" lon="7.53875554">
<ele>565.0</ele>
<time>2011-03-07T10:00:25Z</time>
<extensions>
<gpx10:speed>1.25</gpx10:speed>
<ogt10:accuracy>17.0</ogt10:accuracy>
<gpx10:course>158.0</gpx10:course></extensions>
</trkpt>
<trkpt lat="46.8872344" lon="7.53885779">
<ele>564.9000244140625</ele>
<time>2011-03-07T10:00:41Z</time>
<extensions>
<gpx10:speed>1.25</gpx10:speed>
<ogt10:accuracy>13.0</ogt10:accuracy>
<gpx10:course>154.60000610351563</gpx10:course></extensions>
</trkpt>
<trkpt lat="46.88695381" lon="7.53884871">
<ele>564.2000122070313</ele>
<time>2011-03-07T10:01:00Z</time>
<extensions>
<gpx10:speed>0.75</gpx10:speed>
<ogt10:accuracy>13.0</ogt10:accuracy>
<gpx10:course>194.1999969482422</gpx10:course></extensions>
</trkpt>
<trkpt lat="46.88668987" lon="7.53895962">
<ele>559.7000122070313</ele>
<time>2011-03-07T10:01:30Z</time>
<extensions>
<gpx10:speed>0.5</gpx10:speed>
<ogt10:accuracy>17.0</ogt10:accuracy>
<gpx10:course>141.10000610351563</gpx10:course></extensions>
</trkpt>
<trkpt lat="46.88655068" lon="7.53931562">
<ele>563.5999755859375</ele>
<time>2011-03-07T10:02:13Z</time>
<extensions>
<gpx10:speed>0.75</gpx10:speed>
<ogt10:accuracy>10.0</ogt10:accuracy>
<gpx10:course>120.30000305175781</gpx10:course></extensions>
</trkpt>
<trkpt lat="46.88626776" lon="7.5393295">
<ele>556.9000244140625</ele>
<time>2011-03-07T10:02:28Z</time>
<extensions>
<gpx10:speed>2.0</gpx10:speed>
<ogt10:accuracy>24.0</ogt10:accuracy>
<gpx10:course>175.0</gpx10:course></extensions>
</trkpt>
<trkpt lat="46.88598442" lon="7.53926238">
<ele>556.7000122070313</ele>
<time>2011-03-07T10:03:01Z</time>
<extensions>
<gpx10:speed>1.0</gpx10:speed>
<ogt10:accuracy>29.0</ogt10:accuracy>
<gpx10:course>220.10000610351563</gpx10:course></extensions>
</trkpt>
<trkpt lat="46.88570368" lon="7.53919945">
<ele>555.7999877929688</ele>
<time>2011-03-07T10:03:26Z</time>
<extensions>
<gpx10:speed>1.25</gpx10:speed>
<ogt10:accuracy>18.0</ogt10:accuracy>
<gpx10:course>198.8000030517578</gpx10:course></extensions>
</trkpt>
<trkpt lat="46.88542903" lon="7.53937675">
<ele>554.5999755859375</ele>
<time>2011-03-07T10:03:43Z</time>
<extensions>
<gpx10:speed>1.5</gpx10:speed>
<ogt10:accuracy>14.0</ogt10:accuracy>
<gpx10:course>170.39999389648438</gpx10:course></extensions>
</trkpt>
<trkpt lat="46.88515881" lon="7.53947352">
<ele>554.9000244140625</ele>
<time>2011-03-07T10:04:08Z</time>
<extensions>
<gpx10:speed>0.75</gpx10:speed>
<ogt10:accuracy>15.0</ogt10:accuracy>
<gpx10:course>205.10000610351563</gpx10:course></extensions>
</trkpt>
<trkpt lat="46.88490719" lon="7.53961829">
<ele>552.7999877929688</ele>
<time>2011-03-07T10:04:27Z</time>
<extensions>
<gpx10:speed>0.75</gpx10:speed>
<ogt10:accuracy>13.0</ogt10:accuracy>
<gpx10:course>206.3000030517578</gpx10:course></extensions>
</trkpt>
<trkpt lat="46.88461364" lon="7.53975457">
<ele>552.5</ele>
<time>2011-03-07T10:04:45Z</time>
<extensions>
<gpx10:speed>1.0</gpx10:speed>
<ogt10:accuracy>11.0</ogt10:accuracy>
<gpx10:course>175.5</gpx10:course></extensions>
</trkpt>
<trkpt lat="46.88432889" lon="7.53980461">
<ele>552.4000244140625</ele>
<time>2011-03-07T10:05:12Z</time>
<extensions>
<gpx10:speed>0.75</gpx10:speed>
<ogt10:accuracy>11.0</ogt10:accuracy>
<gpx10:course>197.60000610351563</gpx10:course></extensions>
</trkpt>
<trkpt lat="46.88405367" lon="7.53994965">
<ele>555.5</ele>
<time>2011-03-07T10:05:31Z</time>
<extensions>
<gpx10:speed>1.0</gpx10:speed>
<ogt10:accuracy>14.0</ogt10:accuracy>
<gpx10:course>187.1999969482422</gpx10:course></extensions>
</trkpt>
<trkpt lat="46.88378947" lon="7.54012924">
<ele>556.7000122070313</ele>
<time>2011-03-07T10:05:48Z</time>
<extensions>
<gpx10:speed>1.0</gpx10:speed>
<ogt10:accuracy>12.0</ogt10:accuracy>
<gpx10:course>181.6999969482422</gpx10:course></extensions>
</trkpt>
<trkpt lat="46.88351044" lon="7.54022115">
<ele>554.2000122070313</ele>
<time>2011-03-07T10:06:08Z</time>
<extensions>
<gpx10:speed>1.25</gpx10:speed>
<ogt10:accuracy>13.0</ogt10:accuracy>
<gpx10:course>168.60000610351563</gpx10:course></extensions>
</trkpt>
<trkpt lat="46.88323916" lon="7.54028804">
<ele>552.0999755859375</ele>
<time>2011-03-07T10:06:36Z</time>
<extensions>
<gpx10:speed>1.0</gpx10:speed>
<ogt10:accuracy>12.0</ogt10:accuracy>
<gpx10:course>172.3000030517578</gpx10:course></extensions>
</trkpt>
</trkseg>
<trkseg>
<trkpt lat="46.88297878" lon="7.54032208">
<ele>547.7000122070313</ele>
<time>2011-03-07T10:06:57Z</time>
<extensions>
<gpx10:speed>1.0</gpx10:speed>
<ogt10:accuracy>21.0</ogt10:accuracy>
<gpx10:course>201.10000610351563</gpx10:course></extensions>
</trkpt>
</trkseg>
<trkseg>
<trkpt lat="46.87838506" lon="7.54103742">
<ele>567.4000244140625</ele>
<time>2011-03-07T10:17:37Z</time>
<extensions>
<ogt10:accuracy>49.0</ogt10:accuracy></extensions>
</trkpt>
<trkpt lat="46.87796061" lon="7.54090979">
<ele>567.2999877929688</ele>
<time>2011-03-07T10:21:18Z</time>
<extensions>
<ogt10:accuracy>36.0</ogt10:accuracy></extensions>
</trkpt>
<trkpt lat="46.87567844" lon="7.54149913">
<ele>602.5</ele>
<time>2011-03-07T10:23:39Z</time>
<extensions>
<ogt10:accuracy>30.0</ogt10:accuracy></extensions>
</trkpt>
<trkpt lat="46.87379693" lon="7.54269364">
<ele>539.5</ele>
<time>2011-03-07T10:26:20Z</time>
<extensions>
<gpx10:speed>7.215435028076172</gpx10:speed>
<ogt10:accuracy>32.0</ogt10:accuracy>
<gpx10:course>87.69999694824219</gpx10:course></extensions>
</trkpt>
<trkpt lat="46.87190689" lon="7.54390603">
<ele>567.9000244140625</ele>
<time>2011-03-07T10:30:42Z</time>
<extensions>
<gpx10:speed>1.25</gpx10:speed>
<ogt10:accuracy>33.0</ogt10:accuracy>
<gpx10:course>163.89999389648438</gpx10:course></extensions>
</trkpt>
<trkpt lat="46.87070589" lon="7.54471971">
<ele>579.2999877929688</ele>
<time>2011-03-07T10:31:45Z</time>
<extensions>
<ogt10:accuracy>21.0</ogt10:accuracy></extensions>
</trkpt>
<trkpt lat="46.86961828" lon="7.54469347">
<ele>584.5999755859375</ele>
<time>2011-03-07T10:32:30Z</time>
<extensions>
<gpx10:speed>3.4003677368164063</gpx10:speed>
<ogt10:accuracy>41.0</ogt10:accuracy>
<gpx10:course>140.1999969482422</gpx10:course></extensions>
</trkpt>
<trkpt lat="46.86883266" lon="7.54559511">
<ele>559.5</ele>
<time>2011-03-07T10:33:24Z</time>
<extensions>
<gpx10:speed>1.1180340051651</gpx10:speed>
<ogt10:accuracy>49.0</ogt10:accuracy>
<gpx10:course>172.3000030517578</gpx10:course></extensions>
</trkpt>
<trkpt lat="46.86818487" lon="7.54582125">
<ele>582.4000244140625</ele>
<time>2011-03-07T10:35:21Z</time>
<extensions>
<gpx10:speed>1.1180340051651</gpx10:speed>
<ogt10:accuracy>33.0</ogt10:accuracy>
<gpx10:course>148.5</gpx10:course></extensions>
</trkpt>
<trkpt lat="46.86699237" lon="7.5466167">
<ele>593.2999877929688</ele>
<time>2011-03-07T10:36:41Z</time>
<extensions>
<gpx10:speed>2.136000871658325</gpx10:speed>
<ogt10:accuracy>36.0</ogt10:accuracy>
<gpx10:course>172.10000610351563</gpx10:course></extensions>
</trkpt>
</trkseg>
</trk>
</gpx>